Time;durP1;ratioP1;P1;durP2;ratioP2;P2;SDS_P1;SDS_P2;PMS_P1;PMS_P2;Temp;Humidity;BMP_temperature;BMP_pressure;BME280_temperature;BME280_humidity;BME280_pressure;Samples;Min_cycle;Max_cycle;Signal;HPM_P1;HPM_P2
2022/07/30 00:01:34;;;;;;;6.07;2.97;;;21.50;68.70;;;;;;5033718;28;20499;-49
2022/07/30 00:04:00;;;;;;;6.20;3.57;;;21.50;68.70;;;;;;5019862;28;20449;-56
2022/07/30 00:06:27;;;;;;;3.93;1.80;;;21.60;69.10;;;;;;5028363;28;20465;-53
2022/07/30 00:08:54;;;;;;;5.40;2.33;;;21.50;68.60;;;;;;5033469;28;20438;-49
2022/07/30 00:11:21;;;;;;;4.47;2.47;;;21.50;68.90;;;;;;5034121;28;20480;-52
2022/07/30 00:13:49;;;;;;;2.83;2.30;;;21.50;69.20;;;;;;5033065;28;20465;-53
2022/07/30 00:16:16;;;;;;;4.23;2.53;;;21.50;69.50;;;;;;5033634;28;20484;-57
2022/07/30 00:18:43;;;;;;;3.20;2.20;;;21.40;69.70;;;;;;5033491;28;20469;-52
2022/07/30 00:21:10;;;;;;;3.23;2.63;;;21.40;70.00;;;;;;5033581;28;20540;-50
2022/07/30 00:23:36;;;;;;;3.50;2.90;;;21.30;69.90;;;;;;5033541;28;20484;-46
2022/07/30 00:26:03;;;;;;;6.40;3.20;;;21.40;70.20;;;;;;5033420;28;20501;-53
2022/07/30 00:28:30;;;;;;;6.53;2.70;;;21.40;70.50;;;;;;5033155;28;20465;-49
2022/07/30 00:30:58;;;;;;;3.20;2.60;;;21.40;70.40;;;;;;5031929;28;20469;-54
2022/07/30 00:33:25;;;;;;;2.90;2.60;;;21.40;71.40;;;;;;5031729;28;20441;-53
2022/07/30 00:35:52;;;;;;;6.47;3.07;;;21.30;70.80;;;;;;5020995;28;20465;-53
2022/07/30 00:38:19;;;;;;;9.37;3.70;;;21.40;71.40;;;;;;5028478;28;20483;-51
2022/07/30 00:40:47;;;;;;;9.67;2.80;;;21.30;71.30;;;;;;5033334;28;20484;-49
2022/07/30 00:43:15;;;;;;;3.63;2.73;;;21.30;71.60;;;;;;5033664;28;20442;-53
2022/07/30 00:45:43;;;;;;;5.13;2.40;;;21.30;71.80;;;;;;5032849;28;20440;-51
2022/07/30 00:48:12;;;;;;;17.83;10.33;;;21.30;72.30;;;;;;5032168;28;20445;-51
2022/07/30 00:50:39;;;;;;;5.63;3.80;;;21.20;72.30;;;;;;5033317;27;20469;-52
2022/07/30 00:53:09;;;;;;;4.37;3.00;;;21.20;72.80;;;;;;5033113;28;20497;-60
2022/07/30 00:55:36;;;;;;;5.73;3.70;;;21.20;72.90;;;;;;5032745;28;20493;-53
2022/07/30 00:58:03;;;;;;;3.53;2.70;;;21.20;72.90;;;;;;5032198;28;20526;-52
2022/07/30 01:00:32;;;;;;;9.63;3.40;;;21.20;73.10;;;;;;5032563;28;20491;-47
2022/07/30 01:02:59;;;;;;;3.67;2.20;;;21.20;73.30;;;;;;5032882;28;20473;-52
2022/07/30 01:05:27;;;;;;;2.90;2.60;;;21.10;73.60;;;;;;5032677;28;20518;-53
2022/07/30 01:07:54;;;;;;;3.03;2.67;;;21.10;73.90;;;;;;5032811;28;20449;-49
2022/07/30 01:10:21;;;;;;;5.17;2.17;;;21.10;74.00;;;;;;5032745;28;20434;-53
2022/07/30 01:12:51;;;;;;;4.67;2.83;;;21.10;74.40;;;;;;5032750;28;20481;-56
2022/07/30 01:15:18;;;;;;;5.70;2.30;;;21.10;75.00;;;;;;5032675;28;20442;-56
2022/07/30 01:17:48;;;;;;;3.70;2.90;;;21.00;75.10;;;;;;5033016;28;20469;-48
2022/07/30 01:20:17;;;;;;;2.50;2.30;;;21.10;75.40;;;;;;5032428;28;20552;-52
2022/07/30 01:22:54;;;;;;;2.60;2.40;;;21.00;75.50;;;;;;5031861;28;20468;-53
2022/07/30 01:25:33;;;;;;;3.17;2.77;;;21.00;76.70;;;;;;5015615;28;20440;-57
2022/07/30 01:28:04;;;;;;;7.03;2.20;;;20.90;76.20;;;;;;5032782;28;20429;-46
2022/07/30 01:30:35;;;;;;;3.73;2.57;;;21.00;76.70;;;;;;5032862;28;20441;-50
2022/07/30 01:33:04;;;;;;;6.00;3.23;;;20.90;77.00;;;;;;5032300;28;20496;-53
2022/07/30 01:35:33;;;;;;;2.60;2.40;;;20.90;77.10;;;;;;5032506;28;20448;-53
2022/07/30 01:38:01;;;;;;;4.00;2.67;;;20.90;77.70;;;;;;5033136;28;20477;-52
2022/07/30 01:40:30;;;;;;;4.33;2.77;;;20.90;78.10;;;;;;5032915;28;20469;-61
2022/07/30 01:43:01;;;;;;;4.43;2.80;;;20.80;78.40;;;;;;5032989;28;20521;-49
2022/07/30 01:45:31;;;;;;;3.30;2.73;;;20.90;78.80;;;;;;5033104;28;20457;-55
2022/07/30 01:48:00;;;;;;;4.63;2.43;;;20.90;79.20;;;;;;5033369;28;20476;-60
2022/07/30 01:50:28;;;;;;;2.70;2.27;;;20.80;79.70;;;;;;5032520;28;20456;-49
2022/07/30 01:52:57;;;;;;;3.20;2.70;;;20.80;80.30;;;;;;5032270;28;20480;-52
2022/07/30 01:55:35;;;;;;;5.10;2.77;;;20.70;80.90;;;;;;5032956;28;20461;-57
2022/07/30 01:58:06;;;;;;;5.27;2.97;;;20.70;81.10;;;;;;5032692;28;20495;-54
2022/07/30 02:00:38;;;;;;;4.50;3.13;;;20.70;81.60;;;;;;5034691;28;20476;-55
2022/07/30 02:03:07;;;;;;;4.43;3.00;;;20.70;81.80;;;;;;5034930;28;20483;-51
2022/07/30 02:05:36;;;;;;;6.60;2.60;;;20.70;82.40;;;;;;5035696;28;20441;-53
2022/07/30 02:08:08;;;;;;;4.83;3.00;;;20.70;82.70;;;;;;5034931;28;20480;-54
2022/07/30 02:10:41;;;;;;;7.00;2.77;;;20.70;82.90;;;;;;5021477;28;20425;-56
2022/07/30 02:13:09;;;;;;;2.80;2.50;;;20.70;83.10;;;;;;5032959;28;20476;-53
2022/07/30 02:15:43;;;;;;;4.23;3.20;;;20.60;83.60;;;;;;5035516;28;20466;-54
2022/07/30 02:18:14;;;;;;;4.07;2.40;;;20.60;84.40;;;;;;5018535;28;20461;-52
2022/07/30 02:20:46;;;;;;;3.20;2.50;;;20.70;84.60;;;;;;5035322;28;20485;-53
2022/07/30 02:23:16;;;;;;;3.87;3.07;;;20.60;85.10;;;;;;5035189;28;20485;-56
2022/07/30 02:25:47;;;;;;;4.33;2.73;;;20.60;85.50;;;;;;5034939;28;20504;-52
2022/07/30 02:28:16;;;;;;;9.60;3.13;;;20.60;86.10;;;;;;5034857;28;20475;-53
2022/07/30 02:30:49;;;;;;;3.80;2.97;;;20.60;86.60;;;;;;5035267;28;20448;-53
2022/07/30 02:33:18;;;;;;;4.20;3.20;;;20.50;87.00;;;;;;5034912;28;20489;-53
2022/07/30 02:35:45;;;;;;;4.47;2.60;;;20.50;87.60;;;;;;5034876;28;20512;-50
2022/07/30 02:38:15;;;;;;;4.70;2.73;;;20.50;88.40;;;;;;5023151;28;20479;-56
2022/07/30 02:40:44;;;;;;;4.53;2.63;;;20.50;88.40;;;;;;5033623;28;20484;-60
2022/07/30 02:43:14;;;;;;;2.50;2.10;;;20.50;89.40;;;;;;5035489;28;20477;-51
2022/07/30 02:45:42;;;;;;;3.50;2.83;;;20.50;89.70;;;;;;5035259;28;20467;-53
2022/07/30 02:48:11;;;;;;;2.90;2.60;;;20.40;90.00;;;;;;5033924;28;20457;-53
2022/07/30 02:50:40;;;;;;;6.47;2.93;;;20.50;90.30;;;;;;5033613;28;20475;-55
2022/07/30 02:53:09;;;;;;;2.57;2.23;;;20.50;90.60;;;;;;5019916;28;20483;-52
2022/07/30 02:55:39;;;;;;;4.67;3.00;;;20.50;91.00;;;;;;5022382;28;20453;-56
2022/07/30 02:58:07;;;;;;;2.47;2.27;;;20.40;91.10;;;;;;5031948;28;20495;-55
2022/07/30 03:00:35;;;;;;;4.53;2.67;;;20.40;91.40;;;;;;5035584;28;20477;-51
2022/07/30 03:03:04;;;;;;;6.30;2.57;;;20.30;91.60;;;;;;5035266;28;20469;-60
2022/07/30 03:05:34;;;;;;;2.97;2.43;;;20.30;91.90;;;;;;5035796;28;20448;-52
2022/07/30 03:08:02;;;;;;;4.77;2.33;;;20.30;92.10;;;;;;5035740;28;20469;-57
2022/07/30 03:10:31;;;;;;;6.00;2.30;;;20.30;92.60;;;;;;5035816;27;20437;-70
2022/07/30 03:12:59;;;;;;;3.17;2.87;;;20.30;92.80;;;;;;5035820;28;20469;-57
2022/07/30 03:15:27;;;;;;;5.60;2.80;;;20.30;93.00;;;;;;5035751;28;20464;-53
2022/07/30 03:17:55;;;;;;;4.47;2.37;;;20.30;93.30;;;;;;5034851;28;20437;-54
2022/07/30 03:20:28;;;;;;;13.53;2.40;;;20.30;93.70;;;;;;5035228;28;20461;-63
2022/07/30 03:22:58;;;;;;;3.20;2.53;;;20.20;93.90;;;;;;5035120;28;20433;-67
2022/07/30 03:25:27;;;;;;;3.10;2.30;;;20.20;94.20;;;;;;5035651;28;20406;-53
2022/07/30 03:27:56;;;;;;;4.30;2.63;;;20.20;94.60;;;;;;5034817;28;20425;-52
2022/07/30 03:30:24;;;;;;;4.47;2.60;;;20.10;95.20;;;;;;5035203;28;20457;-52
2022/07/30 03:32:53;;;;;;;6.00;2.23;;;20.10;95.30;;;;;;5035143;28;20437;-53
2022/07/30 03:35:21;;;;;;;3.53;2.40;;;20.10;95.60;;;;;;5035011;28;20465;-58
2022/07/30 03:37:49;;;;;;;5.77;3.50;;;20.10;96.00;;;;;;5034934;28;20453;-58
2022/07/30 03:40:18;;;;;;;3.70;2.40;;;20.10;96.40;;;;;;5034434;28;20475;-52
2022/07/30 03:42:46;;;;;;;10.13;2.47;;;20.10;96.70;;;;;;5034836;28;20413;-52
2022/07/30 03:45:13;;;;;;;4.60;2.50;;;20.10;96.70;;;;;;5018211;28;20483;-54
2022/07/30 03:47:42;;;;;;;3.80;2.47;;;20.10;96.90;;;;;;5034335;28;20499;-58
2022/07/30 03:50:11;;;;;;;4.83;1.87;;;20.10;97.10;;;;;;5035012;28;20426;-58
2022/07/30 03:52:40;;;;;;;2.17;1.70;;;20.10;97.20;;;;;;5034176;28;20449;-52
2022/07/30 03:55:08;;;;;;;3.90;2.60;;;20.10;97.40;;;;;;5020471;28;20453;-50
2022/07/30 03:57:43;;;;;;;4.20;2.20;;;20.20;97.60;;;;;;5031698;28;20445;-50
2022/07/30 04:00:14;;;;;;;2.70;2.50;;;20.20;97.60;;;;;;5034387;28;20492;-52
2022/07/30 04:02:42;;;;;;;4.57;2.30;;;20.20;97.70;;;;;;5034332;28;20497;-46
2022/07/30 04:05:09;;;;;;;3.90;2.10;;;20.20;97.90;;;;;;5034213;28;20475;-53
2022/07/30 04:07:38;;;;;;;6.63;2.30;;;20.20;98.00;;;;;;5034359;28;20500;-51
2022/07/30 04:10:06;;;;;;;5.57;2.40;;;20.20;98.20;;;;;;5034673;28;20548;-57
2022/07/30 04:12:33;;;;;;;5.00;2.37;;;20.20;98.50;;;;;;5034190;28;20512;-52
2022/07/30 04:15:02;;;;;;;4.77;1.97;;;20.20;99.00;;;;;;5034121;28;20466;-50
2022/07/30 04:17:38;;;;;;;2.20;1.77;;;20.20;99.10;;;;;;5034124;28;20501;-47
2022/07/30 04:20:09;;;;;;;5.20;2.17;;;20.20;99.40;;;;;;5034108;28;20556;-56
2022/07/30 04:22:38;;;;;;;5.23;2.23;;;20.10;99.60;;;;;;5032630;28;20430;-51
2022/07/30 04:25:06;;;;;;;2.83;2.00;;;20.10;99.90;;;;;;5033160;28;20532;-52
2022/07/30 04:27:34;;;;;;;2.10;1.73;;;20.20;99.80;;;;;;5033317;28;20437;-51
2022/07/30 04:30:04;;;;;;;5.73;2.33;;;20.20;99.80;;;;;;5033369;28;20487;-53
2022/07/30 04:32:32;;;;;;;2.33;1.93;;;20.20;99.90;;;;;;5034290;28;20429;-51
2022/07/30 04:34:59;;;;;;;1.97;1.80;;;20.20;99.90;;;;;;5033515;28;20481;-56
2022/07/30 04:37:27;;;;;;;2.17;1.73;;;20.20;99.90;;;;;;5034011;28;20456;-56
2022/07/30 04:39:56;;;;;;;2.47;1.83;;;20.20;99.90;;;;;;5034233;28;20465;-54
2022/07/30 04:42:24;;;;;;;9.87;2.20;;;20.20;99.90;;;;;;5033633;28;20453;-55
2022/07/30 04:44:51;;;;;;;2.60;1.60;;;20.30;99.90;;;;;;5018195;28;20473;-56
2022/07/30 04:47:19;;;;;;;2.63;1.90;;;20.30;99.90;;;;;;5032952;27;20528;-51
2022/07/30 04:49:47;;;;;;;2.23;2.03;;;20.20;99.90;;;;;;5032750;28;20489;-52
2022/07/30 04:52:16;;;;;;;3.00;1.63;;;20.30;99.90;;;;;;5032852;28;20487;-53
2022/07/30 04:54:46;;;;;;;5.00;2.37;;;20.30;99.90;;;;;;5032728;28;20549;-52
2022/07/30 04:57:17;;;;;;;4.37;2.30;;;20.40;99.90;;;;;;5033066;28;20457;-54
2022/07/30 04:59:44;;;;;;;2.43;2.10;;;20.40;99.90;;;;;;5032581;28;20545;-52
2022/07/30 05:02:12;;;;;;;2.63;1.80;;;20.40;99.90;;;;;;5032921;28;20444;-52
2022/07/30 05:04:42;;;;;;;2.87;2.30;;;20.40;99.90;;;;;;5032758;28;20480;-54
2022/07/30 05:07:13;;;;;;;3.20;2.00;;;20.50;99.90;;;;;;5032948;28;20445;-55
2022/07/30 05:09:42;;;;;;;2.80;2.03;;;20.50;99.90;;;;;;5032902;28;20472;-52
2022/07/30 05:12:09;;;;;;;2.50;1.63;;;20.50;99.90;;;;;;5032760;28;20445;-56
2022/07/30 05:14:36;;;;;;;4.63;1.70;;;20.50;99.90;;;;;;5032476;28;20475;-52
2022/07/30 05:17:03;;;;;;;3.00;1.80;;;20.60;99.90;;;;;;5031999;28;20457;-49
2022/07/30 05:19:30;;;;;;;4.37;1.70;;;20.60;99.90;;;;;;5032653;28;20532;-50
2022/07/30 05:21:58;;;;;;;2.57;1.97;;;20.70;99.90;;;;;;5032383;28;20533;-50
2022/07/30 05:24:25;;;;;;;2.13;1.80;;;20.70;99.90;;;;;;5032564;28;20521;-52
2022/07/30 05:26:52;;;;;;;4.63;2.13;;;20.70;99.90;;;;;;5032499;28;20449;-52
2022/07/30 05:29:18;;;;;;;2.97;1.57;;;20.70;99.90;;;;;;5032578;28;20449;-52
2022/07/30 05:31:45;;;;;;;2.20;1.40;;;20.80;99.90;;;;;;5032946;28;20468;-52
2022/07/30 05:34:12;;;;;;;4.53;1.70;;;20.80;99.90;;;;;;5031685;28;20451;-56
2022/07/30 05:36:39;;;;;;;4.10;1.73;;;20.80;99.90;;;;;;5032732;28;20433;-52
2022/07/30 05:39:07;;;;;;;3.73;1.90;;;20.90;99.90;;;;;;5032171;28;20493;-55
2022/07/30 05:41:34;;;;;;;3.03;1.50;;;20.90;99.90;;;;;;5031629;28;20493;-55
2022/07/30 05:44:01;;;;;;;2.67;2.07;;;21.00;99.90;;;;;;5032407;28;20480;-53
2022/07/30 05:46:29;;;;;;;5.53;2.00;;;21.00;99.70;;;;;;5031963;28;20502;-51
2022/07/30 05:48:56;;;;;;;3.67;1.50;;;21.10;99.80;;;;;;5032136;28;20454;-54
2022/07/30 05:51:23;;;;;;;3.13;2.30;;;21.10;99.90;;;;;;5032302;28;20468;-54
2022/07/30 05:53:50;;;;;;;1.87;1.67;;;21.30;99.50;;;;;;5032677;28;20441;-53
2022/07/30 05:56:18;;;;;;;2.50;2.03;;;21.30;99.50;;;;;;5032382;28;20551;-51
2022/07/30 05:58:45;;;;;;;3.10;1.67;;;21.40;99.40;;;;;;5032312;28;20477;-54
2022/07/30 06:01:12;;;;;;;4.13;2.27;;;21.40;99.70;;;;;;5031888;28;20549;-54
2022/07/30 06:03:39;;;;;;;2.10;1.63;;;21.50;99.20;;;;;;5032017;28;20491;-55
2022/07/30 06:06:07;;;;;;;2.57;2.37;;;21.50;99.00;;;;;;5031535;28;20505;-57
2022/07/30 06:08:34;;;;;;;4.63;2.40;;;21.50;98.80;;;;;;5032456;28;20441;-53
2022/07/30 06:11:01;;;;;;;3.23;2.00;;;21.60;98.80;;;;;;5031637;28;20468;-53
2022/07/30 06:13:29;;;;;;;2.47;1.83;;;21.60;98.60;;;;;;5032095;28;20477;-51
2022/07/30 06:15:56;;;;;;;1.80;1.67;;;21.60;98.70;;;;;;5031913;28;20528;-53
2022/07/30 06:18:23;;;;;;;2.50;1.67;;;21.60;98.40;;;;;;5016197;28;20514;-57
2022/07/30 06:20:50;;;;;;;1.83;1.67;;;21.70;98.40;;;;;;5024214;28;20484;-58
2022/07/30 06:23:17;;;;;;;2.67;1.80;;;21.70;98.60;;;;;;5021841;28;20425;-53
2022/07/30 06:25:44;;;;;;;1.67;1.33;;;21.70;98.30;;;;;;5031841;28;20549;-49
2022/07/30 06:28:11;;;;;;;5.93;2.33;;;21.70;98.20;;;;;;5031987;28;20436;-57
2022/07/30 06:30:41;;;;;;;2.03;1.83;;;21.80;98.20;;;;;;5031711;28;20484;-50
2022/07/30 06:33:07;;;;;;;5.17;1.73;;;21.90;98.10;;;;;;5031735;28;20469;-52
2022/07/30 06:35:34;;;;;;;2.50;1.90;;;21.90;98.10;;;;;;5031620;28;20484;-49
2022/07/30 06:38:01;;;;;;;7.27;2.10;;;22.00;97.80;;;;;;5031664;28;20492;-51
2022/07/30 06:40:28;;;;;;;3.17;2.30;;;22.10;97.80;;;;;;5031117;28;20481;-53
2022/07/30 06:42:55;;;;;;;6.00;2.63;;;22.10;97.60;;;;;;5017926;28;20501;-53
2022/07/30 06:45:23;;;;;;;4.70;1.67;;;22.20;97.50;;;;;;5031363;28;20449;-50
2022/07/30 06:47:52;;;;;;;4.23;1.90;;;22.20;97.40;;;;;;5035000;28;20553;-48
2022/07/30 06:50:22;;;;;;;2.67;1.97;;;22.30;97.40;;;;;;5035673;28;20436;-49
2022/07/30 06:52:49;;;;;;;10.67;2.33;;;22.40;97.20;;;;;;5035474;28;20465;-53
2022/07/30 06:55:15;;;;;;;2.70;1.83;;;22.50;96.80;;;;;;5035698;28;20497;-54
2022/07/30 06:57:42;;;;;;;2.83;1.80;;;22.60;96.70;;;;;;5035126;28;20480;-56
2022/07/30 07:00:10;;;;;;;2.47;1.60;;;22.70;96.40;;;;;;5035593;28;20479;-55
2022/07/30 07:02:38;;;;;;;6.77;2.10;;;22.80;95.90;;;;;;5035800;28;20464;-56
2022/07/30 07:05:07;;;;;;;3.80;1.90;;;22.90;96.00;;;;;;5036109;28;20464;-58
2022/07/30 07:07:34;;;;;;;1.73;1.53;;;22.90;95.90;;;;;;5035559;28;20473;-50
2022/07/30 07:10:01;;;;;;;2.97;2.00;;;23.00;95.60;;;;;;5035357;28;20502;-59
2022/07/30 07:12:28;;;;;;;4.13;2.00;;;23.10;95.80;;;;;;5035902;28;20476;-53
2022/07/30 07:14:55;;;;;;;4.63;2.40;;;23.10;95.40;;;;;;5035669;28;20497;-48
2022/07/30 07:17:22;;;;;;;2.10;1.70;;;23.10;95.10;;;;;;5035370;28;20534;-51
2022/07/30 07:19:48;;;;;;;2.73;2.20;;;23.20;94.90;;;;;;5035299;28;20455;-54
2022/07/30 07:22:17;;;;;;;2.37;2.17;;;23.30;94.60;;;;;;5034833;28;20465;-52
2022/07/30 07:24:43;;;;;;;2.83;1.60;;;23.40;94.80;;;;;;5035136;28;20455;-53
2022/07/30 07:27:10;;;;;;;2.93;1.83;;;23.60;94.10;;;;;;5034738;28;20512;-55
2022/07/30 07:29:37;;;;;;;2.20;1.63;;;23.80;93.40;;;;;;5034450;28;20484;-54
2022/07/30 07:32:04;;;;;;;4.17;1.93;;;24.00;93.00;;;;;;5034222;28;20483;-53
2022/07/30 07:34:31;;;;;;;5.43;1.63;;;24.20;93.00;;;;;;5034617;28;20440;-47
2022/07/30 07:36:58;;;;;;;6.07;2.30;;;24.30;92.90;;;;;;5033409;28;20845;-48
2022/07/30 07:39:26;;;;;;;2.60;1.90;;;24.30;92.20;;;;;;5033507;28;20469;-54
2022/07/30 07:41:53;;;;;;;3.63;2.17;;;24.40;92.10;;;;;;5034693;28;20549;-53
2022/07/30 07:44:20;;;;;;;3.30;2.50;;;24.40;91.50;;;;;;5035093;28;20438;-52
2022/07/30 07:46:47;;;;;;;2.90;2.33;;;24.50;91.60;;;;;;5034840;28;20445;-51
2022/07/30 07:49:13;;;;;;;4.47;2.40;;;24.50;91.80;;;;;;5035529;28;20493;-53
2022/07/30 07:51:40;;;;;;;3.03;2.27;;;24.40;91.50;;;;;;5033702;28;20448;-54
2022/07/30 07:54:07;;;;;;;1.90;1.50;;;24.50;91.40;;;;;;5028613;28;20489;-58
2022/07/30 07:56:35;;;;;;;4.57;2.30;;;24.50;91.20;;;;;;5023569;28;20462;-51
2022/07/30 07:59:02;;;;;;;2.20;2.00;;;24.50;91.30;;;;;;5034167;28;20473;-57
2022/07/30 08:01:29;;;;;;;3.27;2.37;;;24.60;91.10;;;;;;5034478;28;20533;-53
2022/07/30 08:03:56;;;;;;;1.90;1.60;;;24.70;90.50;;;;;;5033985;28;20453;-54
2022/07/30 08:06:23;;;;;;;1.90;1.80;;;24.70;90.50;;;;;;5033883;28;20513;-56
2022/07/30 08:08:49;;;;;;;4.40;2.03;;;24.80;90.40;;;;;;5033450;28;20521;-51
2022/07/30 08:11:16;;;;;;;2.57;1.57;;;25.00;90.60;;;;;;5028474;28;20536;-56
2022/07/30 08:13:44;;;;;;;10.03;1.90;;;25.10;90.00;;;;;;5020992;28;20476;-53
2022/07/30 08:16:13;;;;;;;4.13;2.40;;;25.20;88.40;;;;;;5022837;28;20528;-57
2022/07/30 08:18:40;;;;;;;5.37;2.33;;;25.40;90.20;;;;;;5027249;28;20506;-47
2022/07/30 08:21:07;;;;;;;2.63;1.90;;;25.60;88.40;;;;;;5033553;28;20544;-53
2022/07/30 08:23:34;;;;;;;3.23;2.10;;;25.80;86.80;;;;;;5033561;28;20469;-47
2022/07/30 08:26:03;;;;;;;2.43;2.10;;;25.80;86.30;;;;;;5033205;28;20437;-53
2022/07/30 08:28:30;;;;;;;2.23;1.93;;;25.90;85.70;;;;;;5033056;28;20545;-49
2022/07/30 08:30:58;;;;;;;2.80;2.20;;;26.10;85.20;;;;;;5034155;27;20457;-55
2022/07/30 08:33:25;;;;;;;8.83;2.20;;;26.20;84.10;;;;;;5033317;28;20477;-48
2022/07/30 08:35:52;;;;;;;3.73;2.00;;;26.30;82.70;;;;;;5033061;28;20441;-55
2022/07/30 08:38:19;;;;;;;4.60;2.10;;;26.40;83.10;;;;;;5033659;27;20540;-57
2022/07/30 08:40:46;;;;;;;2.10;1.77;;;26.30;82.70;;;;;;5033799;28;20481;-53
2022/07/30 08:43:13;;;;;;;3.10;1.80;;;26.30;82.10;;;;;;5032788;28;20489;-56
2022/07/30 08:45:40;;;;;;;2.80;1.80;;;26.20;81.10;;;;;;5033374;28;20549;-56
2022/07/30 08:48:11;;;;;;;4.30;2.00;;;26.30;80.80;;;;;;5032983;28;20484;-53
2022/07/30 08:50:43;;;;;;;3.70;2.20;;;26.50;81.20;;;;;;5033105;28;20437;-54
2022/07/30 08:53:10;;;;;;;3.37;2.33;;;26.40;81.70;;;;;;5032608;27;20604;-49
2022/07/30 08:55:37;;;;;;;3.30;2.40;;;26.40;81.40;;;;;;5033708;28;20443;-51
2022/07/30 08:58:06;;;;;;;3.50;2.10;;;26.40;81.50;;;;;;5032585;28;20516;-49
2022/07/30 09:00:33;;;;;;;4.37;2.60;;;26.50;81.70;;;;;;5033259;28;20453;-49
2022/07/30 09:03:02;;;;;;;4.00;2.43;;;26.60;81.60;;;;;;5033112;28;20489;-52
2022/07/30 09:05:32;;;;;;;3.63;2.20;;;26.60;79.90;;;;;;5032158;28;20444;-49
2022/07/30 09:07:58;;;;;;;7.17;2.00;;;26.80;80.00;;;;;;5033411;28;20505;-52
2022/07/30 09:10:26;;;;;;;3.30;2.37;;;27.20;77.70;;;;;;5032467;28;20464;-49
2022/07/30 09:12:53;;;;;;;3.60;2.47;;;27.50;77.20;;;;;;5033484;28;20559;-53
2022/07/30 09:15:22;;;;;;;4.13;2.63;;;27.70;75.70;;;;;;5032474;28;20434;-50
2022/07/30 09:17:57;;;;;;;5.00;2.60;;;27.80;75.40;;;;;;5032306;28;20437;-55
2022/07/30 09:20:25;;;;;;;2.80;2.53;;;27.80;76.60;;;;;;5032927;28;20421;-56
2022/07/30 09:22:55;;;;;;;4.00;2.63;;;27.70;75.00;;;;;;5033157;28;20513;-51
2022/07/30 09:25:40;;;;;;;7.90;2.20;;;27.70;75.70;;;;;;5033090;28;20513;-52
2022/07/30 09:28:09;;;;;;;7.00;3.17;;;27.70;76.70;;;;;;5032870;28;20476;-54
2022/07/30 09:30:48;;;;;;;7.33;2.27;;;27.70;75.20;;;;;;5033651;28;20453;-53
2022/07/30 09:33:30;;;;;;;3.80;2.30;;;27.90;73.80;;;;;;5031796;28;20448;-52
2022/07/30 09:35:57;;;;;;;3.37;2.20;;;28.00;74.10;;;;;;5033336;28;20825;-55
2022/07/30 09:38:26;;;;;;;3.43;2.17;;;27.90;72.90;;;;;;5033696;28;20456;-55
2022/07/30 09:40:53;;;;;;;3.30;2.50;;;27.90;73.40;;;;;;5033257;28;20472;-56
2022/07/30 09:43:20;;;;;;;3.70;2.87;;;27.80;73.70;;;;;;5033548;28;20913;-44
2022/07/30 09:45:51;;;;;;;3.23;2.20;;;27.70;73.30;;;;;;5032427;28;20428;-53
2022/07/30 09:48:22;;;;;;;2.27;2.07;;;27.60;73.60;;;;;;5033854;28;20453;-51
2022/07/30 09:50:49;;;;;;;6.23;2.17;;;27.50;74.40;;;;;;5033282;28;20442;-54
2022/07/30 09:53:16;;;;;;;3.10;2.40;;;27.40;74.40;;;;;;5033679;28;20485;-57
2022/07/30 09:55:45;;;;;;;7.03;2.70;;;27.30;75.00;;;;;;5031665;28;20635;-53
2022/07/30 09:58:12;;;;;;;2.30;2.10;;;27.20;75.10;;;;;;5030783;28;20460;-57
2022/07/30 10:00:40;;;;;;;3.37;2.57;;;27.20;76.10;;;;;;5034515;28;20437;-50
2022/07/30 10:03:18;;;;;;;2.50;2.17;;;27.20;75.80;;;;;;5033762;28;20479;-51
2022/07/30 10:05:53;;;;;;;3.10;2.57;;;27.20;76.00;;;;;;5033025;28;20440;-53
2022/07/30 10:08:20;;;;;;;2.43;2.23;;;27.50;75.50;;;;;;5032320;28;20454;-55
2022/07/30 10:10:48;;;;;;;3.00;2.70;;;27.80;73.90;;;;;;5032751;27;20517;-53
2022/07/30 10:13:18;;;;;;;7.50;3.50;;;28.30;73.50;;;;;;5032459;28;20548;-50
2022/07/30 10:15:45;;;;;;;6.67;2.50;;;29.10;72.20;;;;;;5033759;28;20467;-54
2022/07/30 10:18:12;;;;;;;7.80;2.40;;;29.90;69.00;;;;;;5033218;28;20548;-49
2022/07/30 10:20:39;;;;;;;4.50;3.93;;;30.70;66.50;;;;;;5030470;27;20513;-55
2022/07/30 10:23:07;;;;;;;3.00;2.40;;;31.20;64.10;;;;;;5019060;28;20487;-53
2022/07/30 10:25:34;;;;;;;2.67;2.47;;;31.50;62.40;;;;;;5035729;28;20626;-52
2022/07/30 10:28:03;;;;;;;2.97;2.70;;;31.60;60.90;;;;;;5035157;28;20444;-50
2022/07/30 10:30:31;;;;;;;4.60;2.50;;;31.60;60.50;;;;;;5035740;28;20528;-54
2022/07/30 10:32:58;;;;;;;2.77;2.03;;;31.50;59.80;;;;;;5034997;28;20437;-53
2022/07/30 10:35:26;;;;;;;3.13;2.00;;;31.40;59.50;;;;;;5035668;28;20475;-50
2022/07/30 10:37:55;;;;;;;5.20;2.83;;;31.10;59.60;;;;;;5032772;28;20441;-56
2022/07/30 10:40:27;;;;;;;5.07;2.13;;;30.90;59.60;;;;;;5021830;28;20478;-56
2022/07/30 10:43:16;;;;;;;3.20;1.87;;;30.90;60.30;;;;;;5030855;28;20480;-55
2022/07/30 10:45:51;;;;;;;2.13;1.93;;;30.80;60.20;;;;;;5033943;28;20499;-50
2022/07/30 10:48:19;;;;;;;3.57;1.90;;;30.60;60.30;;;;;;5034074;28;20443;-56
2022/07/30 10:50:52;;;;;;;3.20;2.10;;;30.40;61.10;;;;;;5018793;28;20949;-54
2022/07/30 10:53:39;;;;;;;4.70;3.70;;;30.20;61.60;;;;;;5028035;28;20445;-53
2022/07/30 10:56:14;;;;;;;3.83;2.80;;;29.80;61.90;;;;;;5026866;28;20470;-55
2022/07/30 10:59:00;;;;;;;2.57;2.37;;;29.50;62.90;;;;;;5035078;28;20501;-54
2022/07/30 11:02:08;;;;;;;4.00;2.60;;;29.30;63.10;;;;;;5034085;28;20445;-52
2022/07/30 11:04:35;;;;;;;5.57;3.53;;;29.10;63.70;;;;;;5034859;28;20453;-53
2022/07/30 11:07:28;;;;;;;5.20;2.60;;;29.00;63.60;;;;;;5034975;28;20476;-49
2022/07/30 11:09:56;;;;;;;2.57;1.87;;;28.90;64.20;;;;;;5020268;28;20477;-53
2022/07/30 11:12:54;;;;;;;7.87;2.70;;;29.00;64.40;;;;;;5032810;28;20456;-56
2022/07/30 11:15:23;;;;;;;4.73;2.40;;;29.10;64.30;;;;;;5035068;28;20472;-55
2022/07/30 11:18:08;;;;;;;2.00;1.80;;;29.20;64.10;;;;;;5035168;28;20465;-50
2022/07/30 11:20:36;;;;;;;2.70;1.83;;;29.20;63.40;;;;;;5034977;28;20457;-53
2022/07/30 11:23:36;;;;;;;4.43;2.73;;;29.20;62.80;;;;;;5034173;27;20492;-53
2022/07/30 11:26:03;;;;;;;2.30;2.10;;;29.40;63.10;;;;;;5033327;28;20541;-55
2022/07/30 11:28:43;;;;;;;3.50;1.70;;;29.70;62.40;;;;;;5034012;28;20493;-52
2022/07/30 11:31:33;;;;;;;2.30;2.10;;;30.00;60.70;;;;;;5032792;28;20457;-52
2022/07/30 11:34:25;;;;;;;2.73;2.00;;;30.30;60.60;;;;;;5034714;28;20429;-52
2022/07/30 11:37:13;;;;;;;2.33;1.90;;;30.40;60.00;;;;;;5030720;28;20473;-51
2022/07/30 11:40:09;;;;;;;2.97;1.70;;;30.30;59.30;;;;;;5030331;28;20441;-52
2022/07/30 11:42:38;;;;;;;2.00;1.80;;;30.40;58.70;;;;;;5032849;28;20465;-47
2022/07/30 11:45:31;;;;;;;2.80;2.30;;;30.50;59.10;;;;;;5031456;28;20425;-50
2022/07/30 11:48:00;;;;;;;4.50;1.93;;;30.50;58.70;;;;;;5031976;28;20920;-49
2022/07/30 11:50:30;;;;;;;3.10;2.20;;;30.60;58.70;;;;;;5033301;28;20492;-51
2022/07/30 11:52:59;;;;;;;2.03;1.83;;;30.70;58.60;;;;;;5034561;28;20456;-49
2022/07/30 11:55:29;;;;;;;2.10;1.90;;;30.70;58.10;;;;;;5034343;28;20454;-47
2022/07/30 11:57:57;;;;;;;3.37;2.17;;;30.70;57.70;;;;;;5032510;28;21009;-49
2022/07/30 12:00:24;;;;;;;3.20;2.50;;;30.60;57.10;;;;;;5034506;28;20449;-51
2022/07/30 12:02:51;;;;;;;2.73;2.50;;;30.60;58.10;;;;;;5033013;28;20477;-55
2022/07/30 12:05:25;;;;;;;3.93;1.90;;;30.50;57.10;;;;;;5031526;28;20500;-45
2022/07/30 12:07:57;;;;;;;3.00;2.10;;;30.30;57.40;;;;;;5033635;28;20429;-52
2022/07/30 12:10:24;;;;;;;4.10;2.20;;;30.30;57.60;;;;;;5032828;28;20444;-49
2022/07/30 12:12:51;;;;;;;1.70;1.60;;;30.30;57.30;;;;;;5029941;28;20441;-52
2022/07/30 12:15:32;;;;;;;3.70;2.53;;;30.30;57.50;;;;;;5016981;28;20453;-52
2022/07/30 12:18:00;;;;;;;2.17;1.90;;;30.30;57.30;;;;;;5032701;28;20493;-52
2022/07/30 12:20:29;;;;;;;2.67;2.23;;;30.20;57.20;;;;;;5032940;28;20425;-46
2022/07/30 12:22:57;;;;;;;3.23;2.17;;;30.20;56.70;;;;;;5031712;28;20472;-54
2022/07/30 12:25:23;;;;;;;3.63;1.93;;;30.20;56.70;;;;;;5032998;28;20449;-52
2022/07/30 12:27:51;;;;;;;5.37;4.30;;;30.20;57.30;;;;;;5030533;28;20863;-49
2022/07/30 12:30:18;;;;;;;10.70;6.13;;;30.20;57.10;;;;;;5032371;28;20492;-52
2022/07/30 12:32:45;;;;;;;7.17;5.27;;;30.20;56.90;;;;;;5032724;28;20924;-53
2022/07/30 12:35:13;;;;;;;3.27;2.13;;;30.30;56.30;;;;;;5032917;28;20521;-44
2022/07/30 12:38:02;;;;;;;4.60;2.40;;;30.30;56.70;;;;;;5032351;28;20490;-51
2022/07/30 12:40:33;;;;;;;2.00;1.80;;;30.30;56.20;;;;;;5029307;28;20467;-50
2022/07/30 12:43:00;;;;;;;2.27;1.87;;;30.30;56.00;;;;;;5032196;28;20532;-53
2022/07/30 12:45:29;;;;;;;5.13;2.30;;;30.40;56.20;;;;;;5030146;28;20480;-50
2022/07/30 12:47:56;;;;;;;5.23;2.07;;;30.40;56.30;;;;;;5031826;28;20457;-47
2022/07/30 12:50:23;;;;;;;4.33;2.53;;;30.30;56.70;;;;;;5029916;28;20445;-53
2022/07/30 12:52:54;;;;;;;3.87;2.60;;;30.30;57.30;;;;;;5031530;28;20477;-48
2022/07/30 12:55:29;;;;;;;2.43;2.23;;;30.30;55.50;;;;;;5029903;28;20475;-52
2022/07/30 12:57:59;;;;;;;3.17;2.40;;;30.30;55.30;;;;;;5032274;28;20504;-52